Time;durP1;ratioP1;P1;durP2;ratioP2;P2;SDS_P1;SDS_P2;PMS_P1;PMS_P2;Temp;Humidity;BMP_temperature;BMP_pressure;BME280_temperature;BME280_humidity;BME280_pressure;Samples;Min_cycle;Max_cycle;Signal;HPM_P1;HPM_P2
2021/05/29 00:00:04;;;;;;;5.20;4.05;;;13.90;65.80;;;;;;5084593;28;20039;-53
2021/05/29 00:02:30;;;;;;;7.32;3.92;;;14.00;65.70;;;;;;5083339;28;20107;-51
2021/05/29 00:04:55;;;;;;;5.65;3.55;;;13.90;65.80;;;;;;5083299;28;20060;-54
2021/05/29 00:07:21;;;;;;;5.72;3.78;;;13.90;66.00;;;;;;5083198;28;20263;-53
2021/05/29 00:09:46;;;;;;;5.80;4.00;;;13.80;66.20;;;;;;5082847;28;20393;-49
2021/05/29 00:12:12;;;;;;;5.05;3.90;;;13.80;66.30;;;;;;5080699;28;20020;-50
2021/05/29 00:14:39;;;;;;;5.57;3.92;;;13.80;66.40;;;;;;5084672;28;20044;-50
2021/05/29 00:17:05;;;;;;;6.93;3.95;;;13.80;66.40;;;;;;5083094;28;20032;-52
2021/05/29 00:19:31;;;;;;;6.97;3.95;;;13.80;66.50;;;;;;5083063;28;20039;-53
2021/05/29 00:21:56;;;;;;;5.05;3.90;;;13.70;66.60;;;;;;5081539;28;20281;-52
2021/05/29 00:24:22;;;;;;;7.15;4.13;;;13.80;66.80;;;;;;5082812;28;20070;-53
2021/05/29 00:26:47;;;;;;;5.68;4.05;;;13.70;66.90;;;;;;5084436;28;20036;-53
2021/05/29 00:29:13;;;;;;;7.25;4.38;;;13.70;66.90;;;;;;5083047;28;20119;-53
2021/05/29 00:31:38;;;;;;;8.05;4.60;;;13.60;67.40;;;;;;5082498;28;20052;-52
2021/05/29 00:34:04;;;;;;;5.80;4.03;;;13.60;67.60;;;;;;5082378;28;20040;-54
2021/05/29 00:36:29;;;;;;;7.43;4.60;;;13.70;67.60;;;;;;5082292;28;20386;-50
2021/05/29 00:38:55;;;;;;;5.72;4.60;;;13.70;67.40;;;;;;5084023;28;20308;-53
2021/05/29 00:41:20;;;;;;;6.15;4.30;;;13.60;67.60;;;;;;5082653;28;20083;-53
2021/05/29 00:43:46;;;;;;;7.30;4.60;;;13.60;67.50;;;;;;5082572;28;20060;-53
2021/05/29 00:46:12;;;;;;;8.00;4.75;;;13.60;67.70;;;;;;5081193;28;20036;-53
2021/05/29 00:48:38;;;;;;;7.55;4.53;;;13.60;67.60;;;;;;5082382;28;20033;-51
2021/05/29 00:51:04;;;;;;;7.68;4.35;;;13.60;67.50;;;;;;5083937;28;20036;-54
2021/05/29 00:53:30;;;;;;;6.18;4.10;;;13.50;67.70;;;;;;5082731;28;20063;-51
2021/05/29 00:55:56;;;;;;;6.57;4.18;;;13.60;67.70;;;;;;5082587;28;20036;-51
2021/05/29 00:58:22;;;;;;;5.68;4.32;;;13.60;67.90;;;;;;5082387;28;20033;-51
2021/05/29 01:00:48;;;;;;;5.95;4.05;;;13.50;67.90;;;;;;5082249;28;20035;-54
2021/05/29 01:03:14;;;;;;;5.93;4.40;;;13.60;67.90;;;;;;5082350;28;20233;-50
2021/05/29 01:05:39;;;;;;;6.30;5.10;;;13.50;68.20;;;;;;5084129;28;20056;-54
2021/05/29 01:08:05;;;;;;;7.13;4.60;;;13.50;68.30;;;;;;5082504;28;20051;-54
2021/05/29 01:10:30;;;;;;;5.90;4.32;;;13.50;68.50;;;;;;5082095;28;20037;-52
2021/05/29 01:12:58;;;;;;;5.90;4.40;;;13.40;68.60;;;;;;5082323;28;20040;-54
2021/05/29 01:15:25;;;;;;;6.00;4.57;;;13.30;68.60;;;;;;5082345;28;20044;-52
2021/05/29 01:17:50;;;;;;;5.95;4.35;;;13.30;68.60;;;;;;5083734;28;20021;-52
2021/05/29 01:20:16;;;;;;;8.32;4.50;;;13.30;68.60;;;;;;5082594;28;20100;-53
2021/05/29 01:22:43;;;;;;;5.93;4.57;;;13.30;68.50;;;;;;5081906;28;20048;-54
2021/05/29 01:25:29;;;;;;;6.63;4.72;;;13.30;68.40;;;;;;5084470;28;20259;-53
2021/05/29 01:28:01;;;;;;;7.45;5.00;;;13.30;68.20;;;;;;5085839;28;20040;-51
2021/05/29 01:30:27;;;;;;;6.70;4.88;;;13.30;68.40;;;;;;5086079;28;20209;-53
2021/05/29 01:32:54;;;;;;;7.47;4.78;;;13.30;68.50;;;;;;5086628;28;20032;-52
2021/05/29 01:35:19;;;;;;;6.15;4.57;;;13.30;68.60;;;;;;5086249;28;20059;-53
2021/05/29 01:37:45;;;;;;;7.05;4.80;;;13.30;68.80;;;;;;5085687;28;20430;-53
2021/05/29 01:40:11;;;;;;;8.20;5.18;;;13.20;68.80;;;;;;5084623;28;20346;-53
2021/05/29 01:42:37;;;;;;;5.93;4.60;;;13.20;69.00;;;;;;5085503;28;20047;-52
2021/05/29 01:45:07;;;;;;;6.28;4.75;;;13.20;68.80;;;;;;5087902;28;20032;-54
2021/05/29 01:47:34;;;;;;;6.45;4.68;;;13.20;68.80;;;;;;5086575;28;20115;-53
2021/05/29 01:50:04;;;;;;;7.00;5.35;;;13.10;68.80;;;;;;5085597;28;20033;-50
2021/05/29 01:53:05;;;;;;;7.95;5.13;;;13.10;69.00;;;;;;5084529;28;20037;-52
2021/05/29 01:55:31;;;;;;;6.63;4.00;;;13.10;68.80;;;;;;5043638;28;20038;-54
2021/05/29 01:57:57;;;;;;;6.57;5.05;;;13.00;69.30;;;;;;5077041;28;20066;-51
2021/05/29 02:00:27;;;;;;;8.80;4.97;;;13.00;69.50;;;;;;5085019;28;20316;-52
2021/05/29 02:02:53;;;;;;;9.30;4.78;;;13.10;69.10;;;;;;5086013;28;20031;-52
2021/05/29 02:05:20;;;;;;;6.50;4.97;;;13.00;69.10;;;;;;5085683;28;20040;-52
2021/05/29 02:07:46;;;;;;;7.63;4.85;;;13.00;69.40;;;;;;5085189;28;20043;-50
2021/05/29 02:10:20;;;;;;;8.07;4.97;;;13.00;69.50;;;;;;5084081;28;20032;-53
2021/05/29 02:12:47;;;;;;;6.22;4.70;;;13.00;69.30;;;;;;5085121;28;20044;-50
2021/05/29 02:15:17;;;;;;;6.85;5.13;;;13.10;69.30;;;;;;5085218;28;20038;-49
2021/05/29 02:17:43;;;;;;;9.57;5.28;;;13.00;69.40;;;;;;5086895;28;20317;-51
2021/05/29 02:20:09;;;;;;;7.40;4.70;;;13.10;69.30;;;;;;5085378;28;20059;-53
2021/05/29 02:22:35;;;;;;;6.85;5.07;;;13.10;69.00;;;;;;5085018;28;20337;-52
2021/05/29 02:25:01;;;;;;;7.70;4.82;;;13.10;69.10;;;;;;5084906;28;20028;-53
2021/05/29 02:27:26;;;;;;;7.38;5.35;;;13.10;69.40;;;;;;5084646;28;20350;-52
2021/05/29 02:29:52;;;;;;;6.55;5.05;;;13.00;69.80;;;;;;5085209;28;20063;-52
2021/05/29 02:32:17;;;;;;;6.63;5.15;;;13.10;69.50;;;;;;5085162;28;20041;-54
2021/05/29 02:34:43;;;;;;;7.70;5.30;;;13.10;69.20;;;;;;5084426;28;20036;-51
2021/05/29 02:37:08;;;;;;;8.90;5.68;;;13.10;69.30;;;;;;5084375;28;20148;-50
2021/05/29 02:39:34;;;;;;;7.97;5.22;;;13.10;69.10;;;;;;5084776;28;20036;-50
2021/05/29 02:42:00;;;;;;;7.65;5.60;;;13.10;69.30;;;;;;5086140;28;20032;-53
2021/05/29 02:44:25;;;;;;;8.02;5.30;;;13.00;69.20;;;;;;5085034;28;20104;-51
2021/05/29 02:46:52;;;;;;;7.28;4.85;;;12.90;69.30;;;;;;5084583;28;20056;-52
2021/05/29 02:49:17;;;;;;;6.50;4.88;;;13.00;69.30;;;;;;5084274;28;20052;-50
2021/05/29 02:51:43;;;;;;;8.35;5.28;;;12.80;69.40;;;;;;5084331;28;20366;-50
2021/05/29 02:54:08;;;;;;;8.13;5.40;;;12.90;69.70;;;;;;5084387;28;20024;-52
2021/05/29 02:56:34;;;;;;;6.28;5.10;;;12.90;69.70;;;;;;5086650;28;20304;-51
2021/05/29 02:58:59;;;;;;;7.15;5.38;;;12.90;69.60;;;;;;5084835;28;20040;-50
2021/05/29 03:01:25;;;;;;;7.97;5.57;;;12.80;69.80;;;;;;5084349;28;20040;-53
2021/05/29 03:03:50;;;;;;;7.30;5.07;;;12.80;69.60;;;;;;5084057;28;20067;-51
2021/05/29 03:06:16;;;;;;;7.10;5.07;;;12.80;69.70;;;;;;5083993;28;20094;-51
2021/05/29 03:08:42;;;;;;;7.20;4.80;;;12.80;69.70;;;;;;5086153;28;20075;-50
2021/05/29 03:11:08;;;;;;;8.43;4.80;;;12.90;69.70;;;;;;5084395;28;20308;-51
2021/05/29 03:13:34;;;;;;;6.30;4.97;;;12.80;69.90;;;;;;5083896;28;20041;-49
2021/05/29 03:16:00;;;;;;;8.55;4.97;;;12.90;69.90;;;;;;5082944;28;20074;-50
2021/05/29 03:18:25;;;;;;;7.22;5.03;;;12.80;70.10;;;;;;5083775;28;20077;-50
2021/05/29 03:20:51;;;;;;;7.25;4.82;;;12.80;70.20;;;;;;5085648;28;20032;-50
2021/05/29 03:23:16;;;;;;;8.18;5.00;;;12.70;70.40;;;;;;5083995;28;20224;-50
2021/05/29 03:25:42;;;;;;;8.07;5.30;;;12.80;70.50;;;;;;5083851;28;20041;-53
2021/05/29 03:28:08;;;;;;;8.50;5.30;;;12.80;70.20;;;;;;5083493;28;20232;-51
2021/05/29 03:30:34;;;;;;;8.00;5.60;;;12.80;70.10;;;;;;5083556;28;20060;-52
2021/05/29 03:32:59;;;;;;;6.93;5.53;;;12.80;70.20;;;;;;5085404;28;20091;-49
2021/05/29 03:35:25;;;;;;;6.97;5.18;;;12.80;70.10;;;;;;5083416;28;20032;-51
2021/05/29 03:37:51;;;;;;;7.63;5.43;;;12.80;70.20;;;;;;5083466;28;20040;-51
2021/05/29 03:40:16;;;;;;;8.23;5.40;;;12.70;70.40;;;;;;5083298;28;20044;-53
2021/05/29 03:42:42;;;;;;;7.78;5.20;;;12.60;70.80;;;;;;5082244;28;20036;-50
2021/05/29 03:45:09;;;;;;;8.80;5.35;;;12.70;71.00;;;;;;5084922;28;20040;-49
2021/05/29 03:47:34;;;;;;;8.02;5.47;;;12.80;70.80;;;;;;5083511;28;20032;-52
2021/05/29 03:50:00;;;;;;;11.85;5.55;;;12.80;70.40;;;;;;5083627;28;20082;-52
2021/05/29 03:52:26;;;;;;;8.02;5.32;;;12.80;70.30;;;;;;5083279;28;20029;-53
2021/05/29 03:54:51;;;;;;;7.03;5.65;;;12.70;70.80;;;;;;5083336;28;20095;-50
2021/05/29 03:57:17;;;;;;;7.82;5.68;;;12.80;70.70;;;;;;5083032;28;20044;-53
2021/05/29 03:59:42;;;;;;;8.75;4.97;;;12.80;70.60;;;;;;5084552;28;20024;-51
2021/05/29 04:02:08;;;;;;;7.93;5.65;;;12.80;71.00;;;;;;5083077;28;20095;-49
2021/05/29 04:04:33;;;;;;;7.68;5.07;;;12.70;71.20;;;;;;5083198;28;20040;-50
2021/05/29 04:07:00;;;;;;;7.72;5.28;;;12.70;71.50;;;;;;5082935;28;20138;-51
2021/05/29 04:09:26;;;;;;;7.45;5.00;;;12.70;71.20;;;;;;5082842;28;20032;-54
2021/05/29 04:11:51;;;;;;;10.82;5.38;;;12.80;71.30;;;;;;5084502;28;20228;-51
2021/05/29 04:14:17;;;;;;;7.65;5.28;;;12.80;71.30;;;;;;5083214;28;20099;-50
2021/05/29 04:16:43;;;;;;;10.85;6.20;;;12.80;71.10;;;;;;5082975;28;20036;-52
2021/05/29 04:19:08;;;;;;;7.00;5.05;;;12.90;70.70;;;;;;5083110;28;20213;-53
2021/05/29 04:21:34;;;;;;;7.35;5.25;;;12.90;70.40;;;;;;5082760;28;20044;-50
2021/05/29 04:23:59;;;;;;;7.05;4.97;;;12.90;70.50;;;;;;5084327;28;20024;-51
2021/05/29 04:26:25;;;;;;;7.20;4.68;;;13.10;70.30;;;;;;5083073;28;20067;-51
2021/05/29 04:28:51;;;;;;;10.15;5.68;;;13.00;70.70;;;;;;5083060;28;20028;-53
2021/05/29 04:31:17;;;;;;;7.10;5.00;;;13.00;70.90;;;;;;5082816;28;20327;-53
2021/05/29 04:33:43;;;;;;;7.68;5.07;;;13.00;71.30;;;;;;5082967;28;20332;-54
2021/05/29 04:36:08;;;;;;;6.47;5.13;;;13.00;71.50;;;;;;5084115;28;20036;-50
2021/05/29 04:38:34;;;;;;;7.03;4.57;;;13.00;71.60;;;;;;5082724;28;20036;-50
2021/05/29 04:40:59;;;;;;;7.75;5.43;;;13.00;71.40;;;;;;5082793;28;20036;-53
2021/05/29 04:43:25;;;;;;;8.40;5.80;;;13.00;71.60;;;;;;5082412;28;20082;-52
2021/05/29 04:45:50;;;;;;;8.13;5.47;;;13.00;71.60;;;;;;5082687;28;20066;-50
2021/05/29 04:48:17;;;;;;;7.90;5.22;;;13.10;71.50;;;;;;5082307;28;20041;-53
2021/05/29 04:53:27;;;;;;;7.55;4.70;;;13.30;71.20;;;;;;5082811;28;20048;-53
2021/05/29 04:55:53;;;;;;;8.90;5.90;;;13.20;71.30;;;;;;5082494;28;20324;-52
2021/05/29 04:58:20;;;;;;;7.60;5.10;;;13.30;71.50;;;;;;5082785;28;20096;-52
2021/05/29 05:00:45;;;;;;;10.15;5.95;;;13.30;71.50;;;;;;5086363;28;20032;-52
2021/05/29 05:03:11;;;;;;;7.57;5.43;;;13.40;71.20;;;;;;5086594;28;20092;-53
2021/05/29 05:05:36;;;;;;;9.00;5.70;;;13.40;71.20;;;;;;5087976;28;20036;-51
2021/05/29 05:08:02;;;;;;;7.47;5.38;;;13.40;71.30;;;;;;5086194;28;20110;-52
2021/05/29 05:10:27;;;;;;;8.65;5.22;;;13.40;71.80;;;;;;5086671;28;20074;-53
2021/05/29 05:12:53;;;;;;;8.55;5.50;;;13.40;71.70;;;;;;5085174;28;20044;-52
2021/05/29 05:15:18;;;;;;;8.40;6.38;;;13.50;71.10;;;;;;5086208;28;20060;-52
2021/05/29 05:17:44;;;;;;;8.30;6.07;;;13.50;71.00;;;;;;5087992;28;20035;-50
2021/05/29 05:20:10;;;;;;;8.52;6.13;;;13.50;70.60;;;;;;5086512;28;20029;-52
2021/05/29 05:22:36;;;;;;;8.48;5.85;;;13.60;70.10;;;;;;5085176;28;20340;-53
2021/05/29 05:25:03;;;;;;;10.02;5.43;;;13.60;69.10;;;;;;5086142;28;20107;-54
2021/05/29 05:27:29;;;;;;;12.50;5.78;;;13.60;68.40;;;;;;5086201;28;20111;-50
2021/05/29 05:29:54;;;;;;;7.15;5.40;;;13.70;68.00;;;;;;5087514;28;20040;-52
2021/05/29 05:32:21;;;;;;;7.25;5.22;;;13.80;68.10;;;;;;5086542;28;20040;-52
2021/05/29 05:34:46;;;;;;;10.10;5.30;;;13.80;67.40;;;;;;5086155;28;20098;-50
2021/05/29 05:37:12;;;;;;;8.75;5.53;;;13.80;66.80;;;;;;5085585;28;20332;-53
2021/05/29 05:39:38;;;;;;;6.93;4.65;;;13.80;67.00;;;;;;5086068;28;20044;-51
2021/05/29 05:42:04;;;;;;;7.20;5.18;;;13.90;67.00;;;;;;5086050;28;20024;-53
2021/05/29 05:44:30;;;;;;;8.18;4.63;;;13.90;66.90;;;;;;5086225;28;20074;-49
2021/05/29 05:46:55;;;;;;;5.85;4.75;;;14.00;66.80;;;;;;5085373;28;20344;-53
2021/05/29 05:49:21;;;;;;;6.63;5.38;;;14.10;66.40;;;;;;5085711;28;20127;-50
2021/05/29 05:51:46;;;;;;;8.27;5.00;;;14.20;66.10;;;;;;5085535;28;20217;-51
2021/05/29 05:54:12;;;;;;;6.68;5.20;;;14.30;66.00;;;;;;5085657;28;20084;-53
2021/05/29 05:56:37;;;;;;;7.00;5.03;;;14.40;66.30;;;;;;5087188;28;20036;-53
2021/05/29 05:59:03;;;;;;;6.95;5.15;;;14.50;65.80;;;;;;5085745;28;20037;-52
2021/05/29 06:01:29;;;;;;;7.60;4.22;;;14.60;65.60;;;;;;5085048;28;20036;-53
2021/05/29 06:03:54;;;;;;;6.60;5.00;;;14.50;64.00;;;;;;5085080;28;20063;-52
2021/05/29 06:06:20;;;;;;;9.48;4.93;;;14.60;62.80;;;;;;5085045;28;20039;-54
2021/05/29 06:08:46;;;;;;;6.03;4.20;;;14.60;62.70;;;;;;5087066;28;20038;-53
2021/05/29 06:11:11;;;;;;;13.88;4.80;;;14.70;62.50;;;;;;5083938;28;20036;-53
2021/05/29 06:21:31;;;;;;;6.63;4.18;;;15.00;61.20;;;;;;5084772;28;20040;-54
2021/05/29 06:23:57;;;;;;;5.13;3.65;;;15.10;62.00;;;;;;5086559;28;20365;-54
2021/05/29 06:26:23;;;;;;;5.35;4.25;;;15.10;61.40;;;;;;5085217;28;20040;-54
2021/05/29 06:28:48;;;;;;;5.15;3.80;;;15.20;60.70;;;;;;5085446;28;20036;-50
2021/05/29 06:31:14;;;;;;;7.68;4.03;;;15.10;60.00;;;;;;5083618;28;20037;-53
2021/05/29 06:33:39;;;;;;;6.18;3.40;;;15.20;58.70;;;;;;5084650;28;20029;-52
2021/05/29 06:36:05;;;;;;;5.35;3.30;;;15.10;58.10;;;;;;5084510;28;20029;-51
2021/05/29 06:38:30;;;;;;;4.97;3.55;;;15.10;57.50;;;;;;5086709;28;20072;-54
2021/05/29 06:40:56;;;;;;;6.82;3.58;;;15.20;57.20;;;;;;5083877;28;20040;-50
2021/05/29 06:43:21;;;;;;;5.47;3.30;;;15.20;56.80;;;;;;5084992;28;20335;-52
2021/05/29 06:45:47;;;;;;;6.68;3.65;;;15.10;56.80;;;;;;5084626;28;20108;-51
2021/05/29 06:48:14;;;;;;;4.97;3.42;;;15.10;57.00;;;;;;5084374;28;20064;-50
2021/05/29 06:50:47;;;;;;;6.20;3.50;;;15.30;56.10;;;;;;5085930;28;20052;-53
2021/05/29 06:53:14;;;;;;;5.57;3.90;;;15.50;57.10;;;;;;5084803;28;20102;-52
2021/05/29 06:58:47;;;;;;;8.02;3.50;;;15.80;57.60;;;;;;5084690;28;20039;-51
2021/05/29 07:01:13;;;;;;;5.18;3.25;;;15.60;54.50;;;;;;5084531;28;20375;-51
2021/05/29 07:03:38;;;;;;;7.15;3.00;;;15.80;56.50;;;;;;5084566;28;20092;-51
2021/05/29 07:06:04;;;;;;;4.57;3.10;;;16.00;56.50;;;;;;5085909;28;20029;-51
2021/05/29 07:08:29;;;;;;;5.18;2.88;;;16.10;55.50;;;;;;5084445;28;20064;-52
2021/05/29 07:10:55;;;;;;;4.18;2.78;;;16.20;53.50;;;;;;5083909;28;20206;-51
2021/05/29 07:13:20;;;;;;;4.60;2.63;;;16.30;54.10;;;;;;5083904;28;20095;-51
2021/05/29 07:15:46;;;;;;;4.50;2.92;;;16.20;52.90;;;;;;5083909;28;20074;-53
2021/05/29 07:18:13;;;;;;;4.20;2.75;;;16.30;51.70;;;;;;5083659;28;20233;-53
2021/05/29 07:20:39;;;;;;;4.70;2.72;;;16.30;51.70;;;;;;5085348;28;20037;-53
2021/05/29 07:23:05;;;;;;;3.55;2.60;;;16.50;52.40;;;;;;5083647;28;20332;-52
2021/05/29 07:25:30;;;;;;;7.32;2.58;;;16.50;51.50;;;;;;5083707;28;20037;-53
2021/05/29 07:27:56;;;;;;;4.43;2.88;;;16.30;51.00;;;;;;5083652;28;20324;-53
2021/05/29 07:30:22;;;;;;;4.15;2.80;;;16.40;50.90;;;;;;5083202;28;20032;-53
2021/05/29 07:32:47;;;;;;;4.65;2.72;;;16.50;52.00;;;;;;5085360;28;20312;-53
2021/05/29 07:35:13;;;;;;;5.38;2.60;;;16.40;50.90;;;;;;5083980;28;20329;-54
2021/05/29 07:37:38;;;;;;;4.57;2.08;;;16.50;51.30;;;;;;5083547;28;20085;-52
2021/05/29 07:40:05;;;;;;;3.42;1.92;;;16.40;51.60;;;;;;5083503;28;20036;-50
2021/05/29 07:42:31;;;;;;;2.35;1.70;;;16.50;50.60;;;;;;5083673;28;20375;-53
2021/05/29 07:44:56;;;;;;;3.72;2.13;;;16.50;50.90;;;;;;5085143;28;20036;-54
2021/05/29 07:47:22;;;;;;;4.90;2.10;;;16.50;49.60;;;;;;5083362;28;20037;-51
2021/05/29 07:49:47;;;;;;;3.25;2.35;;;16.60;50.40;;;;;;5083586;28;20033;-53
2021/05/29 07:52:13;;;;;;;2.60;2.13;;;16.80;50.60;;;;;;5083089;28;20055;-52
2021/05/29 07:54:38;;;;;;;4.00;2.20;;;16.80;51.50;;;;;;5083409;28;20055;-53
2021/05/29 07:57:04;;;;;;;6.03;2.50;;;16.90;50.90;;;;;;5084562;28;20043;-51
2021/05/29 07:59:30;;;;;;;3.92;2.45;;;16.80;49.70;;;;;;5083542;28;20044;-53
2021/05/29 08:01:56;;;;;;;4.78;2.28;;;16.80;49.90;;;;;;5083125;28;20041;-54
2021/05/29 08:04:21;;;;;;;5.03;2.30;;;17.00;50.90;;;;;;5082627;28;20048;-54
2021/05/29 08:06:47;;;;;;;2.95;2.20;;;16.90;49.00;;;;;;5082695;28;20097;-53
2021/05/29 08:09:12;;;;;;;5.88;2.40;;;16.70;48.30;;;;;;5082818;28;20040;-52
2021/05/29 08:11:38;;;;;;;5.93;2.08;;;16.90;49.30;;;;;;5084700;28;20020;-51
2021/05/29 08:14:06;;;;;;;2.83;2.08;;;17.20;50.40;;;;;;5065467;28;20059;-52
2021/05/29 08:16:31;;;;;;;3.80;2.10;;;17.30;50.00;;;;;;5082742;28;20035;-52
2021/05/29 08:18:57;;;;;;;3.08;2.15;;;17.50;50.10;;;;;;5082819;28;20029;-54
2021/05/29 08:21:23;;;;;;;5.65;2.33;;;17.60;48.40;;;;;;5082558;28;20293;-54
2021/05/29 08:23:48;;;;;;;3.08;2.17;;;17.50;46.40;;;;;;5084267;28;20039;-52
2021/05/29 08:26:14;;;;;;;4.80;2.40;;;17.20;46.10;;;;;;5083259;28;20037;-53
2021/05/29 08:28:40;;;;;;;5.97;2.58;;;17.50;47.40;;;;;;5081348;28;20039;-51
2021/05/29 08:31:05;;;;;;;5.93;2.70;;;17.60;46.60;;;;;;5082625;28;20265;-51
2021/05/29 08:33:31;;;;;;;3.90;2.55;;;17.80;47.60;;;;;;5082417;28;20193;-50
2021/05/29 08:35:56;;;;;;;4.47;2.70;;;17.90;47.20;;;;;;5084893;28;20224;-53
2021/05/29 08:38:22;;;;;;;6.03;2.58;;;18.10;47.70;;;;;;5083053;28;20032;-53
2021/05/29 08:40:47;;;;;;;3.33;2.33;;;18.10;47.60;;;;;;5083904;28;20043;-54
2021/05/29 08:43:13;;;;;;;3.03;2.25;;;18.30;47.50;;;;;;5084092;28;20056;-52
2021/05/29 08:45:39;;;;;;;5.82;2.70;;;18.30;47.70;;;;;;5083007;28;20032;-53
2021/05/29 08:48:05;;;;;;;4.25;2.28;;;18.60;47.40;;;;;;5084035;28;20114;-53
2021/05/29 08:50:31;;;;;;;4.13;2.13;;;18.70;47.00;;;;;;5083185;28;20082;-52
2021/05/29 08:52:56;;;;;;;3.72;2.28;;;18.80;46.80;;;;;;5082992;28;20029;-52
2021/05/29 08:55:22;;;;;;;6.43;2.05;;;19.00;46.10;;;;;;5082412;28;20037;-51
2021/05/29 08:57:50;;;;;;;4.38;2.28;;;19.00;44.10;;;;;;5083231;28;20059;-53
2021/05/29 09:00:21;;;;;;;3.55;1.70;;;19.00;44.30;;;;;;5083213;28;20039;-54
2021/05/29 09:02:58;;;;;;;2.17;1.73;;;19.20;43.50;;;;;;5085396;28;20071;-54
2021/05/29 09:05:51;;;;;;;5.60;1.80;;;19.20;41.80;;;;;;5083515;28;20212;-54
2021/05/29 09:08:18;;;;;;;2.97;1.73;;;19.20;41.90;;;;;;5083736;28;20099;-54
2021/05/29 09:10:47;;;;;;;3.92;1.80;;;19.00;41.30;;;;;;5083288;28;20063;-53
2021/05/29 09:13:14;;;;;;;4.50;2.15;;;19.00;41.00;;;;;;5081233;28;20201;-54
2021/05/29 09:16:03;;;;;;;6.85;2.10;;;19.20;40.80;;;;;;5081415;28;20043;-54
2021/05/29 09:18:49;;;;;;;4.88;2.10;;;19.30;41.60;;;;;;5082421;28;20351;-52
2021/05/29 09:21:23;;;;;;;3.03;1.80;;;19.30;41.20;;;;;;5081889;28;20289;-53
2021/05/29 09:23:51;;;;;;;4.35;1.90;;;19.30;41.50;;;;;;5084143;28;20040;-49
2021/05/29 09:26:16;;;;;;;2.90;1.92;;;19.50;41.20;;;;;;5082270;28;20047;-53
2021/05/29 09:28:43;;;;;;;4.32;1.95;;;19.50;42.10;;;;;;5081842;28;20232;-55
2021/05/29 09:31:16;;;;;;;2.70;1.50;;;19.70;40.10;;;;;;5081703;28;20232;-54
2021/05/29 09:33:42;;;;;;;3.20;1.48;;;19.50;38.40;;;;;;5082260;28;20220;-53
2021/05/29 09:36:10;;;;;;;3.25;1.52;;;19.70;40.10;;;;;;5064466;28;20028;-51
2021/05/29 09:38:40;;;;;;;2.45;1.70;;;19.80;41.00;;;;;;5083835;28;20090;-54
2021/05/29 09:41:17;;;;;;;8.88;1.30;;;19.90;41.90;;;;;;5082328;28;20039;-53
2021/05/29 09:44:06;;;;;;;3.53;1.10;;;19.90;37.50;;;;;;5081990;28;20044;-52
2021/05/29 09:46:52;;;;;;;1.83;1.10;;;19.90;36.60;;;;;;5085245;28;20041;-53
2021/05/29 09:49:17;;;;;;;2.20;1.13;;;20.00;39.00;;;;;;5085524;28;20032;-53
2021/05/29 09:51:43;;;;;;;2.58;1.55;;;19.90;33.20;;;;;;5084713;28;20346;-51
2021/05/29 09:54:10;;;;;;;3.45;1.38;;;19.70;36.50;;;;;;5085674;28;20321;-58
2021/05/29 09:56:44;;;;;;;3.28;1.55;;;19.80;38.40;;;;;;5087107;28;20080;-57
2021/05/29 09:59:13;;;;;;;2.78;1.80;;;20.00;39.50;;;;;;5086039;28;20040;-57
2021/05/29 10:01:46;;;;;;;4.95;1.70;;;20.10;40.00;;;;;;5085174;28;20044;-50
2021/05/29 10:04:16;;;;;;;5.95;1.80;;;20.20;38.90;;;;;;5085398;28;20112;-55
2021/05/29 10:06:42;;;;;;;3.80;2.00;;;20.20;38.70;;;;;;5083783;28;20307;-50
2021/05/29 10:09:07;;;;;;;2.97;1.85;;;20.10;37.70;;;;;;5085356;28;20090;-50
2021/05/29 10:11:35;;;;;;;2.97;1.65;;;20.20;37.90;;;;;;5086628;28;20029;-54
2021/05/29 10:14:02;;;;;;;2.05;1.60;;;20.20;39.10;;;;;;5085641;28;20043;-50
2021/05/29 10:16:28;;;;;;;5.68;2.15;;;20.30;38.20;;;;;;5084891;28;20040;-49
2021/05/29 10:18:54;;;;;;;6.68;2.20;;;20.40;37.60;;;;;;5084664;28;20289;-50
2021/05/29 10:21:20;;;;;;;4.65;1.90;;;20.60;39.30;;;;;;5083522;28;20068;-51
2021/05/29 10:23:47;;;;;;;3.80;2.30;;;20.70;40.60;;;;;;5086638;28;20212;-51
2021/05/29 10:26:16;;;;;;;4.78;2.17;;;20.80;41.50;;;;;;5085254;28;20040;-48
2021/05/29 10:28:43;;;;;;;3.50;2.28;;;20.80;39.90;;;;;;5084763;28;20040;-52
2021/05/29 10:31:09;;;;;;;5.13;2.38;;;20.80;38.90;;;;;;5083614;28;20032;-48
2021/05/29 10:33:42;;;;;;;2.95;2.25;;;20.80;40.20;;;;;;5083420;28;20033;-47
2021/05/29 10:36:08;;;;;;;3.83;2.20;;;20.80;39.60;;;;;;5084477;28;20032;-46
2021/05/29 10:38:44;;;;;;;5.30;2.15;;;20.90;40.20;;;;;;5086307;28;20070;-48
2021/05/29 10:41:10;;;;;;;7.97;2.17;;;21.00;41.00;;;;;;5084978;28;20086;-46
2021/05/29 10:43:36;;;;;;;3.30;2.08;;;20.70;41.00;;;;;;5083656;28;20095;-46
2021/05/29 10:46:08;;;;;;;2.75;1.95;;;20.70;40.40;;;;;;5083347;28;20037;-47
2021/05/29 10:48:49;;;;;;;5.22;2.67;;;20.80;41.50;;;;;;5084387;28;20040;-46
2021/05/29 10:51:16;;;;;;;4.35;2.35;;;20.70;40.20;;;;;;5083025;28;20028;-47
2021/05/29 10:53:57;;;;;;;4.18;1.98;;;20.80;42.70;;;;;;5085430;28;20035;-46
2021/05/29 10:56:24;;;;;;;4.25;2.17;;;20.90;43.50;;;;;;5082753;28;20040;-47
2021/05/29 10:58:54;;;;;;;5.38;2.38;;;21.00;42.00;;;;;;5084247;28;20037;-45
2021/05/29 11:01:21;;;;;;;4.38;2.10;;;21.10;41.60;;;;;;5083988;28;20071;-47
2021/05/29 11:03:48;;;;;;;3.58;2.17;;;21.20;41.30;;;;;;5083059;28;20360;-49
2021/05/29 11:06:29;;;;;;;3.83;2.22;;;21.30;41.40;;;;;;5083922;28;20059;-46
2021/05/29 11:08:57;;;;;;;5.65;2.00;;;21.30;37.50;;;;;;5085994;28;20024;-47
2021/05/29 11:11:35;;;;;;;5.78;2.30;;;21.30;39.50;;;;;;5082885;28;20029;-55
2021/05/29 11:14:05;;;;;;;7.03;1.90;;;21.30;39.40;;;;;;5084115;28;20037;-47
2021/05/29 11:16:50;;;;;;;3.80;1.90;;;21.30;39.50;;;;;;5083718;28;20063;-46
2021/05/29 11:19:19;;;;;;;2.25;1.60;;;21.20;37.00;;;;;;5083871;28;20069;-47
2021/05/29 11:22:10;;;;;;;4.93;1.73;;;21.20;38.60;;;;;;5083625;28;20382;-47
2021/05/29 11:24:48;;;;;;;2.88;1.77;;;21.20;37.80;;;;;;5083978;28;20124;-47
2021/05/29 11:27:26;;;;;;;6.20;1.73;;;21.10;39.30;;;;;;5083762;28;20303;-47
2021/05/29 11:30:04;;;;;;;2.80;1.50;;;21.30;38.00;;;;;;5085265;28;20021;-47
2021/05/29 11:32:52;;;;;;;5.43;1.83;;;21.40;38.60;;;;;;5084402;28;20051;-47
2021/05/29 11:35:23;;;;;;;5.25;1.85;;;21.50;39.00;;;;;;5083666;28;20036;-46
2021/05/29 11:37:59;;;;;;;3.30;1.40;;;21.60;40.40;;;;;;5083363;28;20056;-46
2021/05/29 11:41:00;;;;;;;3.40;2.10;;;21.70;40.60;;;;;;5083443;28;20340;-46
2021/05/29 11:43:44;;;;;;;;;;;21.50;38.70;;;;;;5042068;28;20037;-46
2021/05/29 11:46:11;;;;;;;3.13;1.70;;;21.40;40.00;;;;;;5079881;28;19989;-50
2021/05/29 11:48:38;;;;;;;3.50;2.05;;;21.40;39.10;;;;;;5083186;28;20039;-47
2021/05/29 11:51:13;;;;;;;2.83;1.75;;;21.30;39.00;;;;;;5084784;28;20036;-46
2021/05/29 11:53:50;;;;;;;3.13;1.67;;;21.30;38.70;;;;;;5083778;28;20346;-48
2021/05/29 11:56:20;;;;;;;2.67;1.60;;;21.30;41.00;;;;;;5082194;28;20048;-46
2021/05/29 11:58:48;;;;;;;2.83;1.60;;;21.20;41.10;;;;;;5083434;28;20035;-49
2021/05/29 12:01:15;;;;;;;4.53;1.80;;;21.10;39.40;;;;;;5083111;28;20028;-46
2021/05/29 12:03:43;;;;;;;3.13;1.55;;;21.20;39.80;;;;;;5082969;28;20037;-47
2021/05/29 12:06:09;;;;;;;3.38;1.40;;;21.30;39.10;;;;;;5083232;28;20289;-47
2021/05/29 12:08:53;;;;;;;2.90;1.90;;;21.20;38.80;;;;;;5085333;28;20029;-47
2021/05/29 12:11:21;;;;;;;2.70;1.40;;;21.10;38.60;;;;;;5083586;28;20024;-47
2021/05/29 12:13:55;;;;;;;2.83;1.30;;;21.10;39.60;;;;;;5082753;28;20039;-47
2021/05/29 12:16:28;;;;;;;2.03;1.45;;;21.20;39.40;;;;;;5082711;28;20244;-46
2021/05/29 12:18:54;;;;;;;4.57;1.30;;;21.20;40.00;;;;;;5083212;28;20032;-46
2021/05/29 12:21:19;;;;;;;2.00;1.30;;;21.10;40.20;;;;;;5082666;28;20089;-46
2021/05/29 12:23:53;;;;;;;3.30;1.30;;;21.10;39.80;;;;;;5083510;28;20035;-47
2021/05/29 12:26:18;;;;;;;2.63;1.50;;;21.10;39.60;;;;;;5081960;28;20044;-47
2021/05/29 12:28:44;;;;;;;3.33;1.45;;;21.10;38.30;;;;;;5081628;28;20032;-47
2021/05/29 12:31:09;;;;;;;1.92;1.30;;;21.10;38.00;;;;;;5082739;28;20048;-46
2021/05/29 12:33:35;;;;;;;3.53;1.27;;;21.10;38.30;;;;;;5081322;28;20066;-50
2021/05/29 12:36:12;;;;;;;2.63;1.50;;;21.30;41.10;;;;;;5084388;28;20051;-46
2021/05/29 12:38:51;;;;;;;3.25;1.48;;;21.30;39.00;;;;;;5083386;28;20208;-47
2021/05/29 12:41:21;;;;;;;2.35;1.50;;;21.20;38.00;;;;;;5082826;28;20103;-46
2021/05/29 12:44:01;;;;;;;2.90;1.48;;;21.20;37.50;;;;;;5082681;28;20040;-46
2021/05/29 12:46:27;;;;;;;2.55;1.30;;;21.10;37.30;;;;;;5081598;28;20036;-47
2021/05/29 12:49:01;;;;;;;2.83;1.60;;;21.10;38.20;;;;;;5082254;28;20029;-46
2021/05/29 12:51:44;;;;;;;2.47;1.20;;;21.10;37.70;;;;;;5082705;28;20032;-47
2021/05/29 12:54:11;;;;;;;4.40;1.42;;;21.20;37.90;;;;;;5082833;28;20340;-48
2021/05/29 12:56:36;;;;;;;1.98;1.40;;;21.20;37.90;;;;;;5084691;28;20043;-47
2021/05/29 12:59:04;;;;;;;1.50;1.05;;;21.30;39.00;;;;;;5082750;28;20100;-47
2021/05/29 13:01:39;;;;;;;3.90;1.40;;;21.20;39.60;;;;;;5082382;28;20367;-46
2021/05/29 13:09:41;;;;;;;5.07;1.17;;;20.90;37.70;;;;;;5066808;28;20078;-49